sensor_id;sensor_type;location;lat;lon;timestamp;temperature;humidity
20325;DHT22;10320;49.482;11.256;2023-05-06T00:00:59;13.40;99.90
20325;DHT22;10320;49.482;11.256;2023-05-06T00:03:25;13.40;99.90
20325;DHT22;10320;49.482;11.256;2023-05-06T00:05:51;13.40;99.90
20325;DHT22;10320;49.482;11.256;2023-05-06T00:08:17;13.40;99.90
20325;DHT22;10320;49.482;11.256;2023-05-06T00:10:42;13.40;99.90
20325;DHT22;10320;49.482;11.256;2023-05-06T00:13:08;13.40;99.90
20325;DHT22;10320;49.482;11.256;2023-05-06T00:15:34;13.40;99.90
20325;DHT22;10320;49.482;11.256;2023-05-06T00:18:00;13.40;99.90
20325;DHT22;10320;49.482;11.256;2023-05-06T00:20:27;13.40;99.90
20325;DHT22;10320;49.482;11.256;2023-05-06T00:22:53;13.40;99.90
20325;DHT22;10320;49.482;11.256;2023-05-06T00:25:19;13.40;99.90
20325;DHT22;10320;49.482;11.256;2023-05-06T00:27:44;13.40;99.90
20325;DHT22;10320;49.482;11.256;2023-05-06T00:30:10;13.40;99.90
20325;DHT22;10320;49.482;11.256;2023-05-06T00:32:36;13.30;99.90
20325;DHT22;10320;49.482;11.256;2023-05-06T00:35:02;13.30;99.90
20325;DHT22;10320;49.482;11.256;2023-05-06T00:37:28;13.20;99.90
20325;DHT22;10320;49.482;11.256;2023-05-06T00:39:54;13.20;99.90
20325;DHT22;10320;49.482;11.256;2023-05-06T00:42:20;13.20;99.90
20325;DHT22;10320;49.482;11.256;2023-05-06T00:44:48;13.10;99.90
20325;DHT22;10320;49.482;11.256;2023-05-06T00:47:14;13.10;99.90
20325;DHT22;10320;49.482;11.256;2023-05-06T00:49:40;13.10;99.90
20325;DHT22;10320;49.482;11.256;2023-05-06T00:52:06;13.10;99.90
20325;DHT22;10320;49.482;11.256;2023-05-06T00:54:32;13.20;99.90
20325;DHT22;10320;49.482;11.256;2023-05-06T00:56:58;13.10;99.90
20325;DHT22;10320;49.482;11.256;2023-05-06T00:59:24;13.20;99.90
20325;DHT22;10320;49.482;11.256;2023-05-06T01:01:50;13.20;99.90
20325;DHT22;10320;49.482;11.256;2023-05-06T01:04:16;13.20;99.90
20325;DHT22;10320;49.482;11.256;2023-05-06T01:09:30;13.20;99.90
20325;DHT22;10320;49.482;11.256;2023-05-06T01:12:26;13.20;99.90
20325;DHT22;10320;49.482;11.256;2023-05-06T01:17:57;13.20;99.90
20325;DHT22;10320;49.482;11.256;2023-05-06T01:20:26;13.20;99.90
20325;DHT22;10320;49.482;11.256;2023-05-06T01:22:52;13.30;99.90
20325;DHT22;10320;49.482;11.256;2023-05-06T01:25:20;13.20;99.90
20325;DHT22;10320;49.482;11.256;2023-05-06T01:27:47;13.20;99.90
20325;DHT22;10320;49.482;11.256;2023-05-06T01:30:13;13.20;99.90
20325;DHT22;10320;49.482;11.256;2023-05-06T01:32:59;13.30;99.90
20325;DHT22;10320;49.482;11.256;2023-05-06T01:38:06;13.30;99.90
20325;DHT22;10320;49.482;11.256;2023-05-06T01:40:36;13.30;99.90
20325;DHT22;10320;49.482;11.256;2023-05-06T01:43:04;13.30;99.90
20325;DHT22;10320;49.482;11.256;2023-05-06T01:45:33;13.30;99.90
20325;DHT22;10320;49.482;11.256;2023-05-06T01:47:59;13.30;99.90
20325;DHT22;10320;49.482;11.256;2023-05-06T01:50:26;13.30;99.90
20325;DHT22;10320;49.482;11.256;2023-05-06T01:53:02;13.30;99.90
20325;DHT22;10320;49.482;11.256;2023-05-06T01:55:28;13.40;99.90
20325;DHT22;10320;49.482;11.256;2023-05-06T01:57:54;13.40;99.90
20325;DHT22;10320;49.482;11.256;2023-05-06T02:00:21;13.40;99.90
20325;DHT22;10320;49.482;11.256;2023-05-06T02:02:46;13.40;99.90
20325;DHT22;10320;49.482;11.256;2023-05-06T02:05:12;13.40;99.90
20325;DHT22;10320;49.482;11.256;2023-05-06T02:07:38;13.40;99.90
20325;DHT22;10320;49.482;11.256;2023-05-06T02:10:04;13.50;99.90
20325;DHT22;10320;49.482;11.256;2023-05-06T02:12:30;13.40;99.90
20325;DHT22;10320;49.482;11.256;2023-05-06T02:14:56;13.40;99.90
20325;DHT22;10320;49.482;11.256;2023-05-06T02:17:21;13.30;99.90
20325;DHT22;10320;49.482;11.256;2023-05-06T02:19:47;13.30;99.90
20325;DHT22;10320;49.482;11.256;2023-05-06T02:22:12;13.20;99.90
20325;DHT22;10320;49.482;11.256;2023-05-06T02:24:38;13.20;99.90
20325;DHT22;10320;49.482;11.256;2023-05-06T02:27:04;13.20;99.90
20325;DHT22;10320;49.482;11.256;2023-05-06T02:29:29;13.20;99.90
20325;DHT22;10320;49.482;11.256;2023-05-06T02:31:55;13.30;99.90
20325;DHT22;10320;49.482;11.256;2023-05-06T02:34:21;13.30;99.90
20325;DHT22;10320;49.482;11.256;2023-05-06T02:36:46;13.30;99.90
20325;DHT22;10320;49.482;11.256;2023-05-06T02:39:12;13.30;99.90
20325;DHT22;10320;49.482;11.256;2023-05-06T02:41:37;13.30;99.90
20325;DHT22;10320;49.482;11.256;2023-05-06T02:44:03;13.30;99.90
20325;DHT22;10320;49.482;11.256;2023-05-06T02:46:29;13.30;99.90
20325;DHT22;10320;49.482;11.256;2023-05-06T02:48:54;13.30;99.90
20325;DHT22;10320;49.482;11.256;2023-05-06T02:51:20;13.40;99.90
20325;DHT22;10320;49.482;11.256;2023-05-06T02:53:46;13.40;99.90
20325;DHT22;10320;49.482;11.256;2023-05-06T02:56:11;13.40;99.90
20325;DHT22;10320;49.482;11.256;2023-05-06T02:58:37;13.40;99.90
20325;DHT22;10320;49.482;11.256;2023-05-06T03:01:02;13.40;99.90
20325;DHT22;10320;49.482;11.256;2023-05-06T03:03:28;13.40;99.90
20325;DHT22;10320;49.482;11.256;2023-05-06T03:05:54;13.40;99.90
20325;DHT22;10320;49.482;11.256;2023-05-06T03:08:19;13.40;99.90
20325;DHT22;10320;49.482;11.256;2023-05-06T03:10:45;13.40;99.90
20325;DHT22;10320;49.482;11.256;2023-05-06T03:13:11;13.40;99.90
20325;DHT22;10320;49.482;11.256;2023-05-06T03:15:36;13.40;99.90
20325;DHT22;10320;49.482;11.256;2023-05-06T03:18:02;13.40;99.90
20325;DHT22;10320;49.482;11.256;2023-05-06T03:20:28;13.40;99.90
20325;DHT22;10320;49.482;11.256;2023-05-06T03:22:54;13.40;99.90
20325;DHT22;10320;49.482;11.256;2023-05-06T03:25:20;13.40;99.90
20325;DHT22;10320;49.482;11.256;2023-05-06T03:27:45;13.40;99.90
20325;DHT22;10320;49.482;11.256;2023-05-06T03:30:11;13.40;99.90
20325;DHT22;10320;49.482;11.256;2023-05-06T03:32:37;13.40;99.90
20325;DHT22;10320;49.482;11.256;2023-05-06T03:35:03;13.50;99.90
20325;DHT22;10320;49.482;11.256;2023-05-06T03:37:29;13.50;99.90
20325;DHT22;10320;49.482;11.256;2023-05-06T03:39:55;13.40;99.90
20325;DHT22;10320;49.482;11.256;2023-05-06T03:42:20;13.40;99.90
20325;DHT22;10320;49.482;11.256;2023-05-06T03:44:46;13.40;99.90
20325;DHT22;10320;49.482;11.256;2023-05-06T03:47:12;13.50;99.90
20325;DHT22;10320;49.482;11.256;2023-05-06T03:49:37;13.50;99.90
20325;DHT22;10320;49.482;11.256;2023-05-06T03:52:03;13.50;99.90
20325;DHT22;10320;49.482;11.256;2023-05-06T03:54:29;13.50;99.90
20325;DHT22;10320;49.482;11.256;2023-05-06T03:56:55;13.50;99.90
20325;DHT22;10320;49.482;11.256;2023-05-06T03:59:21;13.50;99.90
20325;DHT22;10320;49.482;11.256;2023-05-06T04:01:46;13.50;99.90
20325;DHT22;10320;49.482;11.256;2023-05-06T04:04:12;13.50;99.90
20325;DHT22;10320;49.482;11.256;2023-05-06T04:06:38;13.50;99.90
20325;DHT22;10320;49.482;11.256;2023-05-06T04:09:03;13.50;99.90
20325;DHT22;10320;49.482;11.256;2023-05-06T04:11:30;13.50;99.90
20325;DHT22;10320;49.482;11.256;2023-05-06T04:13:56;13.60;99.90
20325;DHT22;10320;49.482;11.256;2023-05-06T04:16:22;13.50;99.90
20325;DHT22;10320;49.482;11.256;2023-05-06T04:18:48;13.50;99.90
20325;DHT22;10320;49.482;11.256;2023-05-06T04:21:14;13.50;99.90
20325;DHT22;10320;49.482;11.256;2023-05-06T04:23:39;13.50;99.90
20325;DHT22;10320;49.482;11.256;2023-05-06T04:26:06;13.50;99.90
20325;DHT22;10320;49.482;11.256;2023-05-06T04:28:31;13.50;99.90
20325;DHT22;10320;49.482;11.256;2023-05-06T04:30:57;13.60;99.90
20325;DHT22;10320;49.482;11.256;2023-05-06T04:33:23;13.60;99.90
20325;DHT22;10320;49.482;11.256;2023-05-06T04:35:50;13.60;99.90
20325;DHT22;10320;49.482;11.256;2023-05-06T04:38:20;13.60;99.90
20325;DHT22;10320;49.482;11.256;2023-05-06T04:40:47;13.70;99.90
20325;DHT22;10320;49.482;11.256;2023-05-06T04:43:14;13.70;99.90
20325;DHT22;10320;49.482;11.256;2023-05-06T04:45:43;13.70;99.90
20325;DHT22;10320;49.482;11.256;2023-05-06T04:48:18;13.70;99.90
20325;DHT22;10320;49.482;11.256;2023-05-06T04:50:44;13.70;99.90
20325;DHT22;10320;49.482;11.256;2023-05-06T04:53:11;13.70;99.90
20325;DHT22;10320;49.482;11.256;2023-05-06T04:55:37;13.70;99.90
20325;DHT22;10320;49.482;11.256;2023-05-06T04:58:03;13.60;99.90
20325;DHT22;10320;49.482;11.256;2023-05-06T05:00:29;13.60;99.90
20325;DHT22;10320;49.482;11.256;2023-05-06T05:02:54;13.60;99.90
20325;DHT22;10320;49.482;11.256;2023-05-06T05:05:20;13.70;99.90
20325;DHT22;10320;49.482;11.256;2023-05-06T05:07:46;13.90;99.90
20325;DHT22;10320;49.482;11.256;2023-05-06T05:10:11;14.10;99.90
20325;DHT22;10320;49.482;11.256;2023-05-06T05:12:37;14.30;99.90
20325;DHT22;10320;49.482;11.256;2023-05-06T05:15:03;14.50;99.90
20325;DHT22;10320;49.482;11.256;2023-05-06T05:17:30;14.60;99.90
20325;DHT22;10320;49.482;11.256;2023-05-06T05:19:55;14.70;99.90
20325;DHT22;10320;49.482;11.256;2023-05-06T05:22:21;14.70;99.90
20325;DHT22;10320;49.482;11.256;2023-05-06T05:24:46;14.70;99.90
20325;DHT22;10320;49.482;11.256;2023-05-06T05:27:12;14.60;99.90
20325;DHT22;10320;49.482;11.256;2023-05-06T05:29:38;14.40;99.90
20325;DHT22;10320;49.482;11.256;2023-05-06T05:32:03;14.40;99.90
20325;DHT22;10320;49.482;11.256;2023-05-06T05:34:29;14.30;99.90
20325;DHT22;10320;49.482;11.256;2023-05-06T05:36:55;14.40;99.90
20325;DHT22;10320;49.482;11.256;2023-05-06T05:39:22;14.40;99.90
20325;DHT22;10320;49.482;11.256;2023-05-06T05:41:48;14.50;99.90
20325;DHT22;10320;49.482;11.256;2023-05-06T05:44:13;14.50;99.90
20325;DHT22;10320;49.482;11.256;2023-05-06T05:46:40;14.70;99.90
20325;DHT22;10320;49.482;11.256;2023-05-06T05:49:05;14.80;99.90
20325;DHT22;10320;49.482;11.256;2023-05-06T05:51:31;14.80;99.90
20325;DHT22;10320;49.482;11.256;2023-05-06T05:53:57;14.80;99.90
20325;DHT22;10320;49.482;11.256;2023-05-06T05:56:22;14.60;99.90
20325;DHT22;10320;49.482;11.256;2023-05-06T05:58:48;14.50;99.90
20325;DHT22;10320;49.482;11.256;2023-05-06T06:01:14;14.70;99.90
20325;DHT22;10320;49.482;11.256;2023-05-06T06:03:40;14.90;99.90
20325;DHT22;10320;49.482;11.256;2023-05-06T06:06:06;15.10;99.90
20325;DHT22;10320;49.482;11.256;2023-05-06T06:08:32;15.30;99.90
20325;DHT22;10320;49.482;11.256;2023-05-06T06:10:58;15.50;99.90
20325;DHT22;10320;49.482;11.256;2023-05-06T06:13:25;15.60;99.90
20325;DHT22;10320;49.482;11.256;2023-05-06T06:15:51;15.50;99.90
20325;DHT22;10320;49.482;11.256;2023-05-06T06:18:17;15.30;99.90
20325;DHT22;10320;49.482;11.256;2023-05-06T06:20:43;15.20;99.90
20325;DHT22;10320;49.482;11.256;2023-05-06T06:23:09;15.20;99.90
20325;DHT22;10320;49.482;11.256;2023-05-06T06:25:35;15.30;99.90
20325;DHT22;10320;49.482;11.256;2023-05-06T06:28:01;15.00;99.90
20325;DHT22;10320;49.482;11.256;2023-05-06T06:30:26;15.10;99.90
20325;DHT22;10320;49.482;11.256;2023-05-06T06:32:53;15.10;99.90
20325;DHT22;10320;49.482;11.256;2023-05-06T06:35:19;15.10;99.90
20325;DHT22;10320;49.482;11.256;2023-05-06T06:37:45;15.10;99.90
20325;DHT22;10320;49.482;11.256;2023-05-06T06:40:12;15.20;99.90
20325;DHT22;10320;49.482;11.256;2023-05-06T06:42:38;15.30;99.90
20325;DHT22;10320;49.482;11.256;2023-05-06T06:45:05;15.20;99.90
20325;DHT22;10320;49.482;11.256;2023-05-06T06:47:31;15.50;99.90
20325;DHT22;10320;49.482;11.256;2023-05-06T06:49:57;15.70;99.90
20325;DHT22;10320;49.482;11.256;2023-05-06T06:52:22;15.90;99.90
20325;DHT22;10320;49.482;11.256;2023-05-06T06:54:48;16.00;99.90
20325;DHT22;10320;49.482;11.256;2023-05-06T06:57:14;16.00;99.90
20325;DHT22;10320;49.482;11.256;2023-05-06T06:59:40;16.10;99.90
20325;DHT22;10320;49.482;11.256;2023-05-06T07:02:05;16.10;99.90
20325;DHT22;10320;49.482;11.256;2023-05-06T07:04:31;16.30;99.90
20325;DHT22;10320;49.482;11.256;2023-05-06T07:06:56;16.60;99.90
20325;DHT22;10320;49.482;11.256;2023-05-06T07:09:22;16.70;99.90
20325;DHT22;10320;49.482;11.256;2023-05-06T07:11:48;16.70;99.90
20325;DHT22;10320;49.482;11.256;2023-05-06T07:14:13;16.60;99.90
20325;DHT22;10320;49.482;11.256;2023-05-06T07:16:39;16.40;99.90
20325;DHT22;10320;49.482;11.256;2023-05-06T07:19:05;16.30;99.90
20325;DHT22;10320;49.482;11.256;2023-05-06T07:21:30;16.20;99.90
20325;DHT22;10320;49.482;11.256;2023-05-06T07:23:57;16.30;99.90
20325;DHT22;10320;49.482;11.256;2023-05-06T07:26:23;16.40;99.90
20325;DHT22;10320;49.482;11.256;2023-05-06T07:28:49;16.60;99.90
20325;DHT22;10320;49.482;11.256;2023-05-06T07:31:15;16.90;99.90
20325;DHT22;10320;49.482;11.256;2023-05-06T07:33:45;17.20;99.90
20325;DHT22;10320;49.482;11.256;2023-05-06T07:36:11;17.30;99.90
20325;DHT22;10320;49.482;11.256;2023-05-06T07:38:39;17.20;99.90
20325;DHT22;10320;49.482;11.256;2023-05-06T07:41:05;17.10;99.90
20325;DHT22;10320;49.482;11.256;2023-05-06T07:43:31;17.00;99.90
20325;DHT22;10320;49.482;11.256;2023-05-06T07:45:56;17.10;99.90
20325;DHT22;10320;49.482;11.256;2023-05-06T07:48:30;17.20;99.90
20325;DHT22;10320;49.482;11.256;2023-05-06T07:50:58;17.30;99.90
20325;DHT22;10320;49.482;11.256;2023-05-06T07:53:24;17.20;99.90
20325;DHT22;10320;49.482;11.256;2023-05-06T07:55:51;17.10;99.90
20325;DHT22;10320;49.482;11.256;2023-05-06T07:58:17;17.00;99.90
20325;DHT22;10320;49.482;11.256;2023-05-06T08:00:43;17.00;99.90
20325;DHT22;10320;49.482;11.256;2023-05-06T08:03:09;17.20;99.90
20325;DHT22;10320;49.482;11.256;2023-05-06T08:05:34;17.20;99.90
20325;DHT22;10320;49.482;11.256;2023-05-06T08:08:00;17.10;99.90
20325;DHT22;10320;49.482;11.256;2023-05-06T08:10:26;17.10;99.90
20325;DHT22;10320;49.482;11.256;2023-05-06T08:12:52;16.90;99.90
20325;DHT22;10320;49.482;11.256;2023-05-06T08:15:17;16.70;99.90
20325;DHT22;10320;49.482;11.256;2023-05-06T08:17:43;16.60;99.90
20325;DHT22;10320;49.482;11.256;2023-05-06T08:20:09;16.30;99.90
20325;DHT22;10320;49.482;11.256;2023-05-06T08:22:35;16.40;99.90
20325;DHT22;10320;49.482;11.256;2023-05-06T08:25:01;16.70;99.90
20325;DHT22;10320;49.482;11.256;2023-05-06T08:27:26;17.00;99.90
20325;DHT22;10320;49.482;11.256;2023-05-06T08:29:52;17.30;99.90
20325;DHT22;10320;49.482;11.256;2023-05-06T08:32:18;17.50;99.90
20325;DHT22;10320;49.482;11.256;2023-05-06T08:34:44;17.80;99.90
20325;DHT22;10320;49.482;11.256;2023-05-06T08:37:09;18.00;99.90
20325;DHT22;10320;49.482;11.256;2023-05-06T08:39:35;18.50;99.90
20325;DHT22;10320;49.482;11.256;2023-05-06T08:42:02;18.70;99.90
20325;DHT22;10320;49.482;11.256;2023-05-06T08:44:28;18.50;99.90
20325;DHT22;10320;49.482;11.256;2023-05-06T08:46:55;18.30;99.90
20325;DHT22;10320;49.482;11.256;2023-05-06T08:49:20;18.10;99.90
20325;DHT22;10320;49.482;11.256;2023-05-06T08:51:48;18.00;99.90
20325;DHT22;10320;49.482;11.256;2023-05-06T08:54:15;18.10;99.90
20325;DHT22;10320;49.482;11.256;2023-05-06T08:56:45;18.30;99.90
20325;DHT22;10320;49.482;11.256;2023-05-06T08:59:12;18.60;99.90
20325;DHT22;10320;49.482;11.256;2023-05-06T09:01:38;18.80;99.90
20325;DHT22;10320;49.482;11.256;2023-05-06T09:04:05;18.90;99.90
20325;DHT22;10320;49.482;11.256;2023-05-06T09:06:31;18.90;99.90
20325;DHT22;10320;49.482;11.256;2023-05-06T09:08:58;19.10;99.90
20325;DHT22;10320;49.482;11.256;2023-05-06T09:11:28;19.10;99.90
20325;DHT22;10320;49.482;11.256;2023-05-06T09:16:37;18.70;99.90
20325;DHT22;10320;49.482;11.256;2023-05-06T09:19:03;18.70;99.90
20325;DHT22;10320;49.482;11.256;2023-05-06T09:21:35;18.80;99.90
20325;DHT22;10320;49.482;11.256;2023-05-06T09:24:02;18.60;99.90
20325;DHT22;10320;49.482;11.256;2023-05-06T09:26:29;18.60;99.90
20325;DHT22;10320;49.482;11.256;2023-05-06T09:28:58;18.90;99.90
20325;DHT22;10320;49.482;11.256;2023-05-06T09:31:25;19.00;99.90
20325;DHT22;10320;49.482;11.256;2023-05-06T09:33:55;19.00;99.90
20325;DHT22;10320;49.482;11.256;2023-05-06T09:36:22;18.90;99.90
20325;DHT22;10320;49.482;11.256;2023-05-06T09:38:49;18.90;99.90
20325;DHT22;10320;49.482;11.256;2023-05-06T09:41:20;19.00;99.90
20325;DHT22;10320;49.482;11.256;2023-05-06T09:43:47;18.80;99.90
20325;DHT22;10320;49.482;11.256;2023-05-06T09:46:17;19.00;99.90
20325;DHT22;10320;49.482;11.256;2023-05-06T09:48:44;19.10;99.90
20325;DHT22;10320;49.482;11.256;2023-05-06T09:51:11;19.20;99.90
20325;DHT22;10320;49.482;11.256;2023-05-06T09:53:37;19.10;99.90
20325;DHT22;10320;49.482;11.256;2023-05-06T09:56:05;19.20;99.90
20325;DHT22;10320;49.482;11.256;2023-05-06T09:58:32;19.30;99.90
20325;DHT22;10320;49.482;11.256;2023-05-06T10:00:58;19.60;99.90
20325;DHT22;10320;49.482;11.256;2023-05-06T10:03:25;19.90;99.90
20325;DHT22;10320;49.482;11.256;2023-05-06T10:05:55;20.10;99.90
20325;DHT22;10320;49.482;11.256;2023-05-06T10:08:23;20.00;99.90
20325;DHT22;10320;49.482;11.256;2023-05-06T10:10:49;19.80;99.90
20325;DHT22;10320;49.482;11.256;2023-05-06T10:13:16;19.70;99.90
20325;DHT22;10320;49.482;11.256;2023-05-06T10:15:45;19.80;99.90
20325;DHT22;10320;49.482;11.256;2023-05-06T10:18:15;19.80;99.90
20325;DHT22;10320;49.482;11.256;2023-05-06T10:20:43;20.30;99.90
20325;DHT22;10320;49.482;11.256;2023-05-06T10:23:20;20.70;99.90
20325;DHT22;10320;49.482;11.256;2023-05-06T10:25:52;21.00;99.90
20325;DHT22;10320;49.482;11.256;2023-05-06T10:28:19;21.20;99.90
20325;DHT22;10320;49.482;11.256;2023-05-06T10:30:47;21.10;99.90
20325;DHT22;10320;49.482;11.256;2023-05-06T10:33:13;20.80;99.90
20325;DHT22;10320;49.482;11.256;2023-05-06T10:38:21;21.10;99.90
20325;DHT22;10320;49.482;11.256;2023-05-06T10:40:47;21.10;99.90
20325;DHT22;10320;49.482;11.256;2023-05-06T10:43:31;21.20;99.90
20325;DHT22;10320;49.482;11.256;2023-05-06T10:46:08;21.40;99.90
20325;DHT22;10320;49.482;11.256;2023-05-06T10:48:35;21.50;99.90
20325;DHT22;10320;49.482;11.256;2023-05-06T10:56:30;21.40;99.90
20325;DHT22;10320;49.482;11.256;2023-05-06T10:58:56;21.40;99.90
20325;DHT22;10320;49.482;11.256;2023-05-06T11:01:26;21.00;99.90
20325;DHT22;10320;49.482;11.256;2023-05-06T11:03:52;21.10;99.90
20325;DHT22;10320;49.482;11.256;2023-05-06T11:06:41;21.10;99.90
20325;DHT22;10320;49.482;11.256;2023-05-06T11:09:22;20.90;99.90
20325;DHT22;10320;49.482;11.256;2023-05-06T11:12:01;21.00;99.90
20325;DHT22;10320;49.482;11.256;2023-05-06T11:14:34;21.00;99.90
20325;DHT22;10320;49.482;11.256;2023-05-06T11:19:29;21.50;99.90
20325;DHT22;10320;49.482;11.256;2023-05-06T11:21:59;21.60;99.90
20325;DHT22;10320;49.482;11.256;2023-05-06T11:24:38;21.30;99.90
20325;DHT22;10320;49.482;11.256;2023-05-06T11:27:05;21.50;99.90
20325;DHT22;10320;49.482;11.256;2023-05-06T11:29:31;21.90;99.90
20325;DHT22;10320;49.482;11.256;2023-05-06T11:31:57;22.40;99.90
20325;DHT22;10320;49.482;11.256;2023-05-06T11:34:27;22.60;99.90
20325;DHT22;10320;49.482;11.256;2023-05-06T11:37:01;22.40;99.90
20325;DHT22;10320;49.482;11.256;2023-05-06T11:39:29;22.10;99.90
20325;DHT22;10320;49.482;11.256;2023-05-06T11:41:57;22.20;99.90
20325;DHT22;10320;49.482;11.256;2023-05-06T11:44:24;21.90;99.90
20325;DHT22;10320;49.482;11.256;2023-05-06T11:46:51;22.00;99.90
20325;DHT22;10320;49.482;11.256;2023-05-06T11:49:17;21.90;99.90
20325;DHT22;10320;49.482;11.256;2023-05-06T11:51:42;22.00;99.90
20325;DHT22;10320;49.482;11.256;2023-05-06T11:54:09;22.00;99.90
20325;DHT22;10320;49.482;11.256;2023-05-06T11:56:48;21.90;99.90
20325;DHT22;10320;49.482;11.256;2023-05-06T11:59:15;21.60;99.90
20325;DHT22;10320;49.482;11.256;2023-05-06T12:01:42;21.30;99.90
20325;DHT22;10320;49.482;11.256;2023-05-06T12:04:07;21.10;99.90
20325;DHT22;10320;49.482;11.256;2023-05-06T12:06:34;21.00;99.90
20325;DHT22;10320;49.482;11.256;2023-05-06T12:09:02;21.10;99.90
20325;DHT22;10320;49.482;11.256;2023-05-06T12:11:28;21.40;99.90
20325;DHT22;10320;49.482;11.256;2023-05-06T12:13:55;21.60;99.90
20325;DHT22;10320;49.482;11.256;2023-05-06T12:16:21;21.60;99.90
20325;DHT22;10320;49.482;11.256;2023-05-06T12:18:48;21.60;99.90
20325;DHT22;10320;49.482;11.256;2023-05-06T12:21:14;21.70;99.90
20325;DHT22;10320;49.482;11.256;2023-05-06T12:24:00;21.80;99.90
20325;DHT22;10320;49.482;11.256;2023-05-06T12:26:26;21.70;99.90
20325;DHT22;10320;49.482;11.256;2023-05-06T12:29:07;21.40;99.90
20325;DHT22;10320;49.482;11.256;2023-05-06T12:31:33;21.30;99.90
20325;DHT22;10320;49.482;11.256;2023-05-06T12:33:59;21.60;99.90
20325;DHT22;10320;49.482;11.256;2023-05-06T12:36:26;22.00;99.90
20325;DHT22;10320;49.482;11.256;2023-05-06T12:38:53;22.40;99.90
20325;DHT22;10320;49.482;11.256;2023-05-06T12:41:20;22.10;99.90
20325;DHT22;10320;49.482;11.256;2023-05-06T12:43:46;21.90;99.90
20325;DHT22;10320;49.482;11.256;2023-05-06T12:46:15;21.50;99.90
20325;DHT22;10320;49.482;11.256;2023-05-06T12:48:58;20.90;99.90
20325;DHT22;10320;49.482;11.256;2023-05-06T12:51:24;20.70;99.90
20325;DHT22;10320;49.482;11.256;2023-05-06T12:53:51;20.50;99.90
20325;DHT22;10320;49.482;11.256;2023-05-06T12:56:17;20.60;99.90
20325;DHT22;10320;49.482;11.256;2023-05-06T12:58:43;20.60;99.90
20325;DHT22;10320;49.482;11.256;2023-05-06T13:01:08;20.80;99.90
20325;DHT22;10320;49.482;11.256;2023-05-06T13:03:38;21.00;99.90
20325;DHT22;10320;49.482;11.256;2023-05-06T13:06:05;21.20;99.90
20325;DHT22;10320;49.482;11.256;2023-05-06T13:08:30;21.60;99.90
20325;DHT22;10320;49.482;11.256;2023-05-06T13:10:56;22.10;99.90
20325;DHT22;10320;49.482;11.256;2023-05-06T13:13:23;22.40;99.90
20325;DHT22;10320;49.482;11.256;2023-05-06T13:15:51;22.80;99.90
20325;DHT22;10320;49.482;11.256;2023-05-06T13:18:17;22.90;99.90
20325;DHT22;10320;49.482;11.256;2023-05-06T13:20:43;22.80;99.90
20325;DHT22;10320;49.482;11.256;2023-05-06T13:23:10;22.60;99.90
20325;DHT22;10320;49.482;11.256;2023-05-06T13:25:36;22.10;99.90
20325;DHT22;10320;49.482;11.256;2023-05-06T13:28:01;21.90;99.90
20325;DHT22;10320;49.482;11.256;2023-05-06T13:30:27;22.30;99.90
20325;DHT22;10320;49.482;11.256;2023-05-06T13:32:52;22.50;99.90
20325;DHT22;10320;49.482;11.256;2023-05-06T13:35:18;22.10;99.90
20325;DHT22;10320;49.482;11.256;2023-05-06T13:37:44;21.80;99.90
20325;DHT22;10320;49.482;11.256;2023-05-06T13:40:10;21.60;99.90
20325;DHT22;10320;49.482;11.256;2023-05-06T13:42:36;21.60;99.90
20325;DHT22;10320;49.482;11.256;2023-05-06T13:45:03;21.50;99.90
20325;DHT22;10320;49.482;11.256;2023-05-06T13:47:28;21.40;99.90
20325;DHT22;10320;49.482;11.256;2023-05-06T13:49:54;21.50;99.90
20325;DHT22;10320;49.482;11.256;2023-05-06T13:52:20;21.40;99.90
20325;DHT22;10320;49.482;11.256;2023-05-06T13:54:47;21.60;99.90
20325;DHT22;10320;49.482;11.256;2023-05-06T13:57:12;23.20;99.90
20325;DHT22;10320;49.482;11.256;2023-05-06T13:59:38;25.20;99.90
20325;DHT22;10320;49.482;11.256;2023-05-06T14:02:03;26.70;99.90
20325;DHT22;10320;49.482;11.256;2023-05-06T14:04:29;27.20;99.90
20325;DHT22;10320;49.482;11.256;2023-05-06T14:06:55;27.70;98.50
20325;DHT22;10320;49.482;11.256;2023-05-06T14:09:21;27.80;95.80
20325;DHT22;10320;49.482;11.256;2023-05-06T14:11:47;26.50;95.70
20325;DHT22;10320;49.482;11.256;2023-05-06T14:14:13;25.10;97.10
20325;DHT22;10320;49.482;11.256;2023-05-06T14:16:39;24.20;98.30
20325;DHT22;10320;49.482;11.256;2023-05-06T14:19:05;23.50;98.50
20325;DHT22;10320;49.482;11.256;2023-05-06T14:21:32;23.40;99.90
20325;DHT22;10320;49.482;11.256;2023-05-06T14:23:57;24.70;99.90
20325;DHT22;10320;49.482;11.256;2023-05-06T14:26:23;24.90;97.80
20325;DHT22;10320;49.482;11.256;2023-05-06T14:28:49;24.50;97.30
20325;DHT22;10320;49.482;11.256;2023-05-06T14:31:14;23.80;96.80
20325;DHT22;10320;49.482;11.256;2023-05-06T14:33:40;23.50;97.60
20325;DHT22;10320;49.482;11.256;2023-05-06T14:36:06;23.50;96.90
20325;DHT22;10320;49.482;11.256;2023-05-06T14:38:31;23.30;96.50
20325;DHT22;10320;49.482;11.256;2023-05-06T14:40:57;22.90;96.30
20325;DHT22;10320;49.482;11.256;2023-05-06T14:45:49;22.60;97.00
20325;DHT22;10320;49.482;11.256;2023-05-06T14:48:15;22.20;96.60
20325;DHT22;10320;49.482;11.256;2023-05-06T14:50:41;22.00;97.10
20325;DHT22;10320;49.482;11.256;2023-05-06T14:53:06;21.80;97.30
20325;DHT22;10320;49.482;11.256;2023-05-06T14:55:32;21.60;97.50
20325;DHT22;10320;49.482;11.256;2023-05-06T14:57:57;21.60;98.60
20325;DHT22;10320;49.482;11.256;2023-05-06T15:00:23;21.50;98.80
20325;DHT22;10320;49.482;11.256;2023-05-06T15:02:49;21.60;99.90
20325;DHT22;10320;49.482;11.256;2023-05-06T15:05:15;21.60;99.90
20325;DHT22;10320;49.482;11.256;2023-05-06T15:07:40;21.60;99.50
20325;DHT22;10320;49.482;11.256;2023-05-06T15:10:06;21.60;99.90
20325;DHT22;10320;49.482;11.256;2023-05-06T15:12:32;21.60;99.90
20325;DHT22;10320;49.482;11.256;2023-05-06T15:14:58;22.40;99.90
20325;DHT22;10320;49.482;11.256;2023-05-06T15:17:24;23.70;98.80
20325;DHT22;10320;49.482;11.256;2023-05-06T15:19:49;23.60;99.30
20325;DHT22;10320;49.482;11.256;2023-05-06T15:22:15;23.40;98.50
20325;DHT22;10320;49.482;11.256;2023-05-06T15:24:41;23.40;97.80
20325;DHT22;10320;49.482;11.256;2023-05-06T15:39:18;23.40;98.90
20325;DHT22;10320;49.482;11.256;2023-05-06T15:41:45;24.20;98.40
20325;DHT22;10320;49.482;11.256;2023-05-06T15:44:11;25.20;96.40
20325;DHT22;10320;49.482;11.256;2023-05-06T15:46:37;24.60;96.70
20325;DHT22;10320;49.482;11.256;2023-05-06T15:58:48;24.10;97.00